Time;durP1;ratioP1;P1;durP2;ratioP2;P2;SDS_P1;SDS_P2;PMS_P1;PMS_P2;Temp;Humidity;BMP_temperature;BMP_pressure;BME280_temperature;BME280_humidity;BME280_pressure;Samples;Min_cycle;Max_cycle;Signal;HPM_P1;HPM_P2
2022/08/16 00:01:08;;;;;;;5.13;3.63;;;22.60;91.50;;;;;;5032304;28;20025;-78
2022/08/16 00:03:34;;;;;;;6.38;3.40;;;22.60;91.60;;;;;;5032266;28;20032;-78
2022/08/16 00:06:00;;;;;;;7.43;4.30;;;22.60;91.60;;;;;;5031946;28;20402;-78
2022/08/16 00:08:25;;;;;;;5.00;3.75;;;22.60;91.60;;;;;;5032129;28;20022;-78
2022/08/16 00:10:51;;;;;;;5.22;3.70;;;22.50;91.60;;;;;;5031942;28;20111;-78
2022/08/16 00:13:17;;;;;;;4.45;3.28;;;22.50;91.60;;;;;;5031998;28;20025;-79
2022/08/16 00:15:46;;;;;;;9.13;4.15;;;22.60;91.60;;;;;;5031884;28;20033;-77
2022/08/16 00:18:14;;;;;;;7.93;4.13;;;22.50;91.60;;;;;;5032021;28;20029;-78
2022/08/16 00:20:42;;;;;;;6.05;3.83;;;22.50;91.60;;;;;;5031821;28;20053;-79
2022/08/16 00:23:08;;;;;;;5.60;3.70;;;22.50;91.60;;;;;;5031994;28;20033;-78
2022/08/16 00:25:35;;;;;;;6.22;3.85;;;22.60;91.60;;;;;;5031750;28;20095;-79
2022/08/16 00:28:01;;;;;;;6.47;4.10;;;22.60;91.50;;;;;;5031605;28;20071;-79
2022/08/16 00:30:27;;;;;;;6.40;3.83;;;22.60;91.50;;;;;;5030288;28;20033;-79
2022/08/16 00:32:56;;;;;;;4.50;3.40;;;22.70;91.60;;;;;;5031916;28;20037;-79
2022/08/16 00:35:29;;;;;;;6.03;3.95;;;22.70;91.60;;;;;;5046856;28;20033;-79
2022/08/16 00:37:55;;;;;;;6.13;4.38;;;22.70;91.60;;;;;;5030193;28;20083;-79
2022/08/16 00:40:30;;;;;;;6.38;3.97;;;22.70;91.70;;;;;;5031234;28;20025;-78
2022/08/16 00:42:56;;;;;;;6.50;3.90;;;22.70;91.70;;;;;;5031511;28;20429;-78
2022/08/16 00:45:52;;;;;;;5.15;3.70;;;22.70;91.80;;;;;;5031396;28;20025;-79
2022/08/16 00:48:18;;;;;;;5.50;4.07;;;22.70;91.80;;;;;;5031563;28;20033;-79
2022/08/16 00:50:47;;;;;;;6.70;3.85;;;22.70;91.80;;;;;;5031123;28;20386;-79
2022/08/16 00:53:14;;;;;;;;;;;22.60;91.80;;;;;;5031815;28;20025;-79
2022/08/16 00:55:45;;;;;;;5.07;3.97;;;22.60;91.90;;;;;;5069331;23;19931;-78
2022/08/16 00:58:13;;;;;;;7.03;4.03;;;22.60;92.00;;;;;;5091387;28;20116;-78
2022/08/16 01:00:40;;;;;;;9.52;4.40;;;22.50;92.00;;;;;;5089429;28;20028;-78
2022/08/16 01:03:10;;;;;;;6.47;4.78;;;22.50;92.00;;;;;;5089948;28;20036;-79
2022/08/16 01:05:37;;;;;;;6.80;3.90;;;22.50;92.00;;;;;;5091288;28;20365;-76
2022/08/16 01:08:06;;;;;;;5.70;4.07;;;22.50;92.00;;;;;;5091201;28;20051;-76
2022/08/16 01:10:33;;;;;;;6.43;4.80;;;22.40;92.00;;;;;;5091002;28;20050;-76
2022/08/16 01:13:08;;;;;;;7.72;4.20;;;22.50;92.10;;;;;;5091177;28;20150;-76
2022/08/16 01:15:37;;;;;;;10.10;4.40;;;22.40;92.00;;;;;;5089612;28;20031;-76
2022/08/16 01:18:03;;;;;;;;;;;22.40;92.10;;;;;;5090296;28;20035;-76
2022/08/16 01:20:33;;;;;;;5.38;4.25;;;22.40;92.20;;;;;;5090774;28;19908;-79
2022/08/16 01:23:09;;;;;;;6.07;4.20;;;22.30;92.30;;;;;;5091176;28;20050;-76
2022/08/16 01:25:41;;;;;;;5.22;4.03;;;22.30;92.40;;;;;;5090977;28;20035;-76
2022/08/16 01:28:14;;;;;;;6.00;3.88;;;22.30;92.40;;;;;;5090867;28;20047;-78
2022/08/16 01:30:43;;;;;;;7.32;4.20;;;22.30;92.40;;;;;;5089403;28;20036;-79
2022/08/16 01:33:09;;;;;;;5.90;4.32;;;22.40;92.50;;;;;;5089616;28;20030;-76
2022/08/16 01:35:58;;;;;;;6.57;4.63;;;22.40;92.50;;;;;;5089511;28;20028;-78
2022/08/16 01:38:35;;;;;;;6.47;4.10;;;22.40;92.50;;;;;;5089510;28;20028;-79
2022/08/16 01:41:11;;;;;;;6.72;4.47;;;22.40;92.50;;;;;;5089446;28;20516;-76
2022/08/16 01:43:41;;;;;;;7.90;4.60;;;22.40;92.50;;;;;;5090942;28;20618;-76
2022/08/16 01:46:22;;;;;;;7.57;4.40;;;22.30;92.40;;;;;;5089160;28;20111;-77
2022/08/16 01:48:52;;;;;;;7.70;4.20;;;22.30;92.50;;;;;;5090591;28;20031;-76
2022/08/16 01:51:20;;;;;;;6.32;4.32;;;22.30;92.50;;;;;;5089335;28;20024;-76
2022/08/16 01:53:46;;;;;;;5.47;4.00;;;22.30;92.50;;;;;;5089433;28;20058;-79
2022/08/16 01:56:18;;;;;;;5.03;3.90;;;22.30;92.50;;;;;;5090345;28;20569;-79
2022/08/16 01:58:44;;;;;;;5.70;4.10;;;22.30;92.50;;;;;;5089128;28;20403;-79
2022/08/16 02:01:11;;;;;;;6.63;3.92;;;22.30;92.50;;;;;;5089291;28;20027;-79
2022/08/16 02:03:38;;;;;;;6.13;4.32;;;22.30;92.60;;;;;;5090511;28;20031;-79
2022/08/16 02:06:04;;;;;;;6.32;3.90;;;22.30;92.50;;;;;;5094094;28;20418;-79
2022/08/16 02:08:30;;;;;;;6.20;3.90;;;22.30;92.60;;;;;;5093215;28;20027;-79
2022/08/16 02:10:56;;;;;;;8.50;4.53;;;22.30;92.60;;;;;;5094584;28;20032;-78
2022/08/16 02:13:22;;;;;;;6.38;4.13;;;22.20;92.60;;;;;;5094691;28;20078;-79
2022/08/16 02:15:48;;;;;;;7.45;3.95;;;22.20;92.60;;;;;;5092883;28;20587;-79
2022/08/16 02:18:14;;;;;;;4.32;3.70;;;22.20;92.80;;;;;;5094340;28;20028;-79
2022/08/16 02:20:44;;;;;;;5.72;3.50;;;22.10;92.80;;;;;;5092960;28;20028;-79
2022/08/16 02:23:11;;;;;;;8.48;4.45;;;22.20;92.90;;;;;;5092996;28;20426;-78
2022/08/16 02:25:37;;;;;;;5.53;4.20;;;22.10;93.00;;;;;;5092741;28;20035;-79
2022/08/16 02:28:03;;;;;;;5.80;4.28;;;22.10;93.10;;;;;;5094272;28;20035;-79
2022/08/16 02:30:30;;;;;;;6.47;3.95;;;22.10;93.10;;;;;;5092671;28;20056;-79
2022/08/16 02:32:57;;;;;;;5.90;3.80;;;22.10;93.50;;;;;;5092804;28;20514;-77
2022/08/16 02:35:25;;;;;;;6.45;4.25;;;22.00;93.20;;;;;;5093046;28;20028;-78
2022/08/16 02:37:53;;;;;;;6.27;4.13;;;22.10;93.20;;;;;;5093983;28;20062;-79
2022/08/16 02:40:24;;;;;;;6.68;4.20;;;22.00;93.10;;;;;;5093809;28;20307;-79
2022/08/16 02:42:50;;;;;;;7.75;4.43;;;22.00;93.20;;;;;;5092661;28;20024;-79
2022/08/16 02:45:18;;;;;;;7.50;4.68;;;22.00;93.20;;;;;;5092468;28;20480;-79
2022/08/16 02:47:44;;;;;;;7.60;4.30;;;22.00;93.30;;;;;;5092373;28;20088;-79
2022/08/16 02:50:10;;;;;;;6.95;4.65;;;21.90;93.30;;;;;;5092355;28;20123;-79
2022/08/16 02:52:36;;;;;;;7.32;4.38;;;21.90;93.40;;;;;;5075534;28;20034;-79
2022/08/16 02:55:06;;;;;;;7.28;4.68;;;21.90;93.50;;;;;;5092115;28;20024;-79
2022/08/16 02:57:32;;;;;;;8.60;4.82;;;21.80;93.50;;;;;;5093601;28;20030;-76
2022/08/16 02:59:59;;;;;;;8.70;4.75;;;21.80;93.60;;;;;;5092039;28;20401;-76
2022/08/16 03:02:25;;;;;;;6.25;4.68;;;21.80;93.90;;;;;;5092374;28;20020;-76
2022/08/16 03:04:51;;;;;;;5.88;4.25;;;21.80;93.60;;;;;;5093659;28;20031;-76
2022/08/16 03:07:20;;;;;;;6.43;4.40;;;21.80;93.70;;;;;;5092141;28;20031;-77
2022/08/16 03:09:49;;;;;;;5.97;4.35;;;21.80;93.70;;;;;;5091892;28;20024;-76
2022/08/16 03:12:18;;;;;;;6.00;4.13;;;21.80;93.80;;;;;;5092070;28;20028;-78
2022/08/16 03:14:46;;;;;;;6.72;4.15;;;21.80;93.80;;;;;;5091977;28;20132;-79
2022/08/16 03:17:13;;;;;;;7.55;4.22;;;21.70;93.90;;;;;;5090442;28;20036;-79
2022/08/16 03:19:39;;;;;;;7.05;4.28;;;21.80;94.00;;;;;;5093313;28;20047;-76
2022/08/16 03:22:05;;;;;;;8.40;4.10;;;21.80;94.00;;;;;;5093369;28;20020;-78
2022/08/16 03:24:31;;;;;;;9.05;5.03;;;21.80;94.00;;;;;;5091765;28;20131;-79
2022/08/16 03:27:00;;;;;;;7.55;4.60;;;21.70;94.00;;;;;;5091655;28;20028;-79
2022/08/16 03:29:28;;;;;;;7.75;4.60;;;21.70;94.10;;;;;;5092944;28;20503;-76
2022/08/16 03:31:53;;;;;;;7.32;5.03;;;21.60;94.20;;;;;;5091960;28;20180;-76
2022/08/16 03:34:21;;;;;;;8.27;4.67;;;21.60;94.30;;;;;;5091680;28;20032;-79
2022/08/16 03:36:47;;;;;;;7.55;4.90;;;21.60;94.40;;;;;;5091500;28;20297;-79
2022/08/16 03:39:13;;;;;;;6.47;5.05;;;21.60;94.50;;;;;;5091388;28;20048;-78
2022/08/16 03:41:40;;;;;;;6.40;4.43;;;21.50;94.50;;;;;;5091455;28;20059;-79
2022/08/16 03:44:06;;;;;;;7.35;4.55;;;21.50;94.60;;;;;;5092946;28;20302;-77
2022/08/16 03:46:35;;;;;;;8.43;5.00;;;21.50;94.70;;;;;;5092487;28;20072;-77
2022/08/16 03:49:03;;;;;;;6.68;4.40;;;21.50;94.70;;;;;;5091251;28;20518;-77
2022/08/16 03:51:29;;;;;;;6.43;5.05;;;21.40;94.60;;;;;;5091457;28;20614;-78
2022/08/16 03:54:01;;;;;;;8.18;5.03;;;21.40;94.60;;;;;;5091224;28;20028;-78
2022/08/16 03:56:30;;;;;;;6.75;4.95;;;21.40;94.60;;;;;;5090897;28;20032;-77
2022/08/16 03:58:56;;;;;;;8.48;4.88;;;21.30;94.70;;;;;;5091058;28;20051;-76
2022/08/16 04:01:26;;;;;;;7.85;5.38;;;21.30;94.60;;;;;;5091168;28;20031;-79
2022/08/16 04:03:53;;;;;;;7.45;4.90;;;21.30;94.60;;;;;;5091106;28;20020;-79
2022/08/16 04:06:20;;;;;;;6.28;4.70;;;21.30;94.70;;;;;;5090847;28;20020;-79
2022/08/16 04:08:46;;;;;;;8.07;4.50;;;21.30;94.70;;;;;;5090794;28;20115;-76
2022/08/16 04:11:13;;;;;;;7.53;4.47;;;21.30;94.70;;;;;;5090992;28;20050;-79
2022/08/16 04:13:38;;;;;;;7.50;4.53;;;21.30;94.60;;;;;;5090812;28;20031;-76
2022/08/16 04:16:05;;;;;;;8.85;4.90;;;21.30;94.60;;;;;;5091914;28;20114;-79
2022/08/16 04:18:31;;;;;;;6.15;4.30;;;21.30;94.60;;;;;;5090642;28;20024;-79
2022/08/16 04:20:58;;;;;;;5.75;4.30;;;21.30;94.60;;;;;;5091994;28;20452;-79
2022/08/16 04:23:26;;;;;;;6.63;4.40;;;21.30;94.60;;;;;;5090784;28;20069;-79
2022/08/16 04:25:53;;;;;;;7.25;4.70;;;21.20;94.50;;;;;;5090409;28;20061;-78
2022/08/16 04:28:19;;;;;;;9.43;4.75;;;21.20;94.50;;;;;;5091615;28;20032;-79
2022/08/16 04:30:45;;;;;;;6.25;4.68;;;21.20;94.50;;;;;;5073577;28;20028;-79
2022/08/16 04:33:11;;;;;;;7.15;4.95;;;21.20;94.50;;;;;;5090569;28;20031;-79
2022/08/16 04:35:39;;;;;;;;;;;21.20;94.50;;;;;;5090600;28;20028;-79
2022/08/16 04:38:06;;;;;;;7.22;4.32;;;21.20;94.50;;;;;;5090338;28;19950;-78
2022/08/16 04:40:39;;;;;;;7.78;4.40;;;21.20;94.50;;;;;;5074242;28;20121;-79
2022/08/16 04:43:05;;;;;;;5.97;4.32;;;21.10;94.50;;;;;;5090411;28;20400;-78
2022/08/16 04:45:32;;;;;;;6.93;4.30;;;21.20;94.60;;;;;;5090257;28;20107;-79
2022/08/16 04:47:58;;;;;;;6.20;4.47;;;21.20;94.50;;;;;;5090071;28;20137;-78
2022/08/16 04:50:30;;;;;;;7.30;4.47;;;21.20;94.50;;;;;;5089973;28;20521;-78
2022/08/16 04:52:59;;;;;;;5.95;4.35;;;21.20;94.50;;;;;;5090209;28;20038;-79
2022/08/16 04:55:28;;;;;;;7.25;4.47;;;21.20;94.50;;;;;;5089967;28;20669;-79
2022/08/16 04:57:56;;;;;;;6.93;4.50;;;21.20;94.60;;;;;;5091611;28;20036;-79
2022/08/16 05:00:35;;;;;;;7.15;4.43;;;21.20;94.50;;;;;;5089757;28;20266;-79
2022/08/16 05:03:08;;;;;;;9.45;4.50;;;21.30;94.40;;;;;;5090090;28;20457;-78
2022/08/16 05:05:41;;;;;;;8.40;4.63;;;21.30;94.50;;;;;;5089746;28;20028;-79
2022/08/16 05:08:08;;;;;;;9.60;4.53;;;21.40;94.50;;;;;;5089962;28;20463;-78
2022/08/16 05:10:38;;;;;;;7.18;3.80;;;21.40;94.50;;;;;;5089923;28;20052;-76
2022/08/16 05:13:06;;;;;;;5.47;3.92;;;21.40;94.50;;;;;;5089976;28;20055;-76
2022/08/16 05:15:32;;;;;;;6.40;4.80;;;21.40;94.50;;;;;;5089601;28;20067;-79
2022/08/16 05:17:58;;;;;;;8.02;4.90;;;21.40;94.40;;;;;;5089537;28;20032;-77
2022/08/16 05:20:26;;;;;;;6.82;4.18;;;21.40;94.40;;;;;;5089488;28;20057;-79
2022/08/16 05:22:52;;;;;;;9.75;4.88;;;21.50;94.40;;;;;;5089610;28;20030;-78
2022/08/16 05:25:19;;;;;;;7.35;4.00;;;21.50;94.40;;;;;;5089698;28;20111;-79
2022/08/16 05:27:50;;;;;;;6.60;4.30;;;21.50;94.30;;;;;;5089380;28;20032;-79
2022/08/16 05:30:19;;;;;;;;;;;21.50;94.30;;;;;;5073369;28;20035;-79
2022/08/16 05:32:47;;;;;;;6.68;4.30;;;21.60;94.30;;;;;;5089607;28;19908;-79
2022/08/16 05:35:15;;;;;;;7.05;4.63;;;21.60;94.10;;;;;;5089425;28;20122;-79
2022/08/16 05:37:52;;;;;;;7.13;4.60;;;21.50;94.00;;;;;;5089381;28;20051;-79
2022/08/16 05:40:18;;;;;;;7.97;5.15;;;21.60;93.90;;;;;;5088437;28;20507;-79
2022/08/16 05:42:44;;;;;;;8.30;4.25;;;21.60;93.90;;;;;;5089444;28;20072;-79
2022/08/16 05:45:10;;;;;;;8.27;4.95;;;21.60;93.90;;;;;;5089617;28;20169;-78
2022/08/16 05:47:36;;;;;;;7.32;4.22;;;21.60;93.80;;;;;;5089492;28;20028;-79
2022/08/16 05:50:04;;;;;;;8.05;4.68;;;21.60;93.80;;;;;;5089178;28;20039;-79
2022/08/16 05:52:30;;;;;;;5.55;4.35;;;21.60;93.80;;;;;;5089397;28;20514;-79
2022/08/16 05:54:57;;;;;;;12.40;5.20;;;21.60;93.80;;;;;;5089075;28;20042;-79
2022/08/16 05:57:23;;;;;;;11.52;5.47;;;21.70;93.80;;;;;;5089232;28;20032;-79
2022/08/16 05:59:51;;;;;;;7.03;4.82;;;21.70;93.70;;;;;;5089038;28;20024;-79
2022/08/16 06:02:18;;;;;;;6.55;4.43;;;21.80;93.70;;;;;;5089286;28;20051;-79
2022/08/16 06:04:45;;;;;;;6.22;4.75;;;21.70;93.70;;;;;;5072572;28;20028;-79
2022/08/16 06:07:14;;;;;;;6.63;4.07;;;21.70;93.70;;;;;;5089027;28;20040;-79
2022/08/16 06:09:46;;;;;;;6.63;4.75;;;21.80;93.70;;;;;;5089043;28;20458;-79
2022/08/16 06:12:15;;;;;;;6.13;4.18;;;21.80;93.60;;;;;;5089110;28;20407;-79
2022/08/16 06:14:41;;;;;;;8.65;4.60;;;21.90;93.60;;;;;;5088999;28;20492;-79
2022/08/16 06:17:07;;;;;;;8.32;4.40;;;21.90;93.50;;;;;;5089143;28;20032;-79
2022/08/16 06:19:33;;;;;;;7.50;4.65;;;22.00;93.50;;;;;;5088957;28;20043;-79
2022/08/16 06:22:05;;;;;;;7.90;4.63;;;22.00;93.40;;;;;;5089093;28;20024;-79
2022/08/16 06:24:33;;;;;;;7.70;4.97;;;22.00;93.30;;;;;;5088900;28;20032;-79
2022/08/16 06:26:59;;;;;;;8.65;4.40;;;22.00;93.30;;;;;;5088731;28;20552;-79
2022/08/16 06:29:30;;;;;;;7.93;5.05;;;22.10;93.20;;;;;;5088852;28;20036;-78
2022/08/16 06:31:57;;;;;;;8.25;5.60;;;22.10;93.20;;;;;;5089095;28;20032;-79
2022/08/16 06:34:25;;;;;;;7.47;5.05;;;22.10;93.10;;;;;;5088760;28;20064;-79
2022/08/16 06:36:50;;;;;;;11.82;6.20;;;22.20;93.10;;;;;;5088825;28;20120;-79
2022/08/16 06:39:21;;;;;;;7.82;5.28;;;22.20;93.20;;;;;;5088814;28;20034;-79
2022/08/16 06:42:00;;;;;;;11.90;5.47;;;22.20;93.10;;;;;;5089115;28;20028;-79
2022/08/16 06:44:45;;;;;;;6.88;4.63;;;22.30;93.10;;;;;;5089145;28;20122;-79
2022/08/16 06:47:37;;;;;;;12.95;5.55;;;22.30;93.10;;;;;;5088815;28;20392;-79
2022/08/16 06:50:04;;;;;;;7.40;5.20;;;22.30;93.10;;;;;;5088950;28;20040;-79
2022/08/16 06:52:38;;;;;;;9.85;5.00;;;22.30;93.00;;;;;;5076574;28;20024;-79
2022/08/16 06:55:07;;;;;;;7.10;4.90;;;22.40;93.10;;;;;;5106494;22;20438;-78
2022/08/16 06:57:34;;;;;;;5.65;4.30;;;22.40;93.00;;;;;;5050872;28;20041;-77
2022/08/16 07:00:00;;;;;;;7.40;5.00;;;22.40;93.00;;;;;;5034970;28;20078;-78
2022/08/16 07:02:36;;;;;;;11.27;5.53;;;22.50;93.00;;;;;;5052062;28;20031;-77
2022/08/16 07:05:05;;;;;;;10.27;5.53;;;22.50;92.90;;;;;;5035285;28;20029;-78
2022/08/16 07:07:32;;;;;;;8.60;5.53;;;22.60;92.90;;;;;;5051835;28;20112;-77
2022/08/16 07:09:59;;;;;;;18.08;10.52;;;22.50;93.10;;;;;;5035162;28;20031;-77
2022/08/16 07:12:25;;;;;;;22.42;13.50;;;22.60;92.60;;;;;;5053165;28;20021;-78
2022/08/16 07:14:52;;;;;;;18.10;10.43;;;22.60;92.60;;;;;;5051934;28;20446;-78
2022/08/16 07:17:20;;;;;;;14.60;8.85;;;22.60;92.70;;;;;;5035030;28;20071;-78
2022/08/16 07:19:54;;;;;;;14.05;7.68;;;22.70;92.80;;;;;;5035100;28;20036;-77
2022/08/16 07:22:23;;;;;;;12.32;7.38;;;22.70;92.60;;;;;;5051723;28;20108;-78
2022/08/16 07:24:49;;;;;;;12.50;6.80;;;22.70;92.60;;;;;;5035115;28;20033;-78
2022/08/16 07:27:15;;;;;;;14.52;7.25;;;22.70;92.60;;;;;;5034640;28;20032;-78
2022/08/16 07:29:41;;;;;;;8.38;5.97;;;22.80;92.60;;;;;;5034866;28;20033;-78
2022/08/16 07:32:09;;;;;;;13.70;6.95;;;22.80;92.60;;;;;;5052957;28;20033;-77
2022/08/16 07:34:34;;;;;;;12.43;7.10;;;22.80;92.50;;;;;;5034764;28;20029;-77
2022/08/16 07:37:06;;;;;;;9.90;6.00;;;22.80;92.30;;;;;;5034628;28;20032;-78
2022/08/16 07:39:49;;;;;;;11.52;6.35;;;22.90;92.40;;;;;;5034655;28;20027;-77
2022/08/16 07:42:16;;;;;;;10.88;6.75;;;22.90;92.50;;;;;;5034792;28;20452;-78
2022/08/16 07:44:42;;;;;;;9.68;5.65;;;22.90;92.40;;;;;;5052681;28;20112;-78
2022/08/16 07:47:08;;;;;;;6.93;5.43;;;23.00;92.40;;;;;;5034435;28;20117;-78
2022/08/16 07:49:34;;;;;;;8.77;5.40;;;23.00;92.40;;;;;;5034270;28;20131;-77
2022/08/16 07:52:03;;;;;;;8.95;5.10;;;23.00;92.40;;;;;;5034513;28;20075;-77
2022/08/16 07:54:31;;;;;;;9.30;5.80;;;23.00;92.40;;;;;;5034440;28;20043;-78
2022/08/16 07:56:56;;;;;;;8.55;5.88;;;23.10;92.40;;;;;;5034145;28;20109;-78
2022/08/16 07:59:24;;;;;;;9.90;5.93;;;23.10;92.30;;;;;;5034645;28;20075;-77
2022/08/16 08:01:54;;;;;;;8.45;5.97;;;23.10;92.20;;;;;;5033430;28;20481;-78
2022/08/16 08:04:21;;;;;;;9.23;6.43;;;23.10;92.20;;;;;;5050953;28;20040;-77
2022/08/16 08:06:48;;;;;;;9.80;6.55;;;23.20;92.10;;;;;;5034249;28;20029;-78
2022/08/16 08:09:15;;;;;;;8.80;6.35;;;23.20;92.00;;;;;;5050711;28;20135;-78
2022/08/16 08:11:41;;;;;;;13.60;7.78;;;23.30;91.90;;;;;;5034108;28;20548;-78
2022/08/16 08:14:08;;;;;;;24.60;9.75;;;23.30;91.80;;;;;;5050710;28;20041;-77
2022/08/16 08:16:41;;;;;;;11.70;7.75;;;23.30;91.90;;;;;;5033848;28;20405;-77
2022/08/16 08:19:11;;;;;;;11.00;6.55;;;23.30;91.80;;;;;;5017378;28;20032;-76
2022/08/16 08:21:40;;;;;;;10.45;6.82;;;23.40;91.80;;;;;;5034016;28;20036;-76
2022/08/16 08:24:08;;;;;;;10.80;6.90;;;23.40;91.80;;;;;;5034092;28;20025;-77
2022/08/16 08:26:35;;;;;;;10.82;5.72;;;23.50;91.70;;;;;;5033616;28;20397;-77
2022/08/16 08:29:02;;;;;;;11.20;6.00;;;23.50;91.70;;;;;;5050145;28;20029;-77
2022/08/16 08:31:29;;;;;;;17.13;6.90;;;23.50;91.70;;;;;;5033726;28;20035;-77
2022/08/16 08:33:55;;;;;;;8.80;6.68;;;23.50;91.50;;;;;;5050301;28;20021;-77
2022/08/16 08:36:30;;;;;;;11.48;6.47;;;23.50;91.50;;;;;;5033572;28;20521;-77
2022/08/16 08:38:57;;;;;;;10.68;5.78;;;23.60;91.50;;;;;;5033485;28;20035;-77
2022/08/16 08:41:27;;;;;;;10.95;6.80;;;23.60;91.50;;;;;;5017090;28;20485;-77
2022/08/16 08:43:54;;;;;;;9.40;5.70;;;23.60;91.40;;;;;;5050264;28;20033;-77
2022/08/16 08:46:22;;;;;;;11.07;7.03;;;23.60;91.40;;;;;;5033318;28;20508;-77
2022/08/16 08:48:52;;;;;;;13.85;7.30;;;23.70;91.40;;;;;;5049875;28;20056;-77
2022/08/16 08:51:18;;;;;;;10.18;6.53;;;23.70;91.20;;;;;;5033502;28;20029;-78
2022/08/16 08:53:53;;;;;;;9.15;6.55;;;23.70;91.20;;;;;;5049940;28;20033;-77
2022/08/16 08:56:19;;;;;;;9.00;6.05;;;23.80;91.30;;;;;;5049477;28;20123;-78
2022/08/16 08:58:46;;;;;;;11.68;6.55;;;23.80;91.30;;;;;;5049818;28;20075;-77
2022/08/16 09:01:23;;;;;;;10.38;6.90;;;23.80;91.30;;;;;;5033211;28;20047;-77
2022/08/16 09:03:50;;;;;;;8.05;5.72;;;23.80;91.10;;;;;;5033237;28;20075;-77
2022/08/16 09:06:16;;;;;;;8.43;5.75;;;23.90;91.10;;;;;;5033017;28;20021;-77
2022/08/16 09:08:43;;;;;;;11.02;5.55;;;23.90;91.20;;;;;;5032899;28;20025;-77
2022/08/16 09:11:11;;;;;;;10.20;6.43;;;23.90;91.10;;;;;;5033012;28;20029;-77
2022/08/16 09:13:39;;;;;;;13.18;7.25;;;24.00;90.80;;;;;;5033144;28;20032;-77
2022/08/16 09:16:05;;;;;;;10.13;6.32;;;24.00;90.10;;;;;;5032803;28;20056;-77
2022/08/16 09:18:33;;;;;;;9.00;6.45;;;24.00;90.20;;;;;;5049395;28;20029;-77
2022/08/16 09:20:59;;;;;;;8.23;5.95;;;24.10;90.30;;;;;;5050855;28;20031;-77
2022/08/16 09:23:25;;;;;;;8.23;6.03;;;24.10;90.40;;;;;;5050862;28;20021;-77
2022/08/16 09:25:52;;;;;;;9.10;6.00;;;24.10;90.50;;;;;;5032742;28;20116;-77
2022/08/16 09:28:18;;;;;;;10.32;5.90;;;24.10;90.30;;;;;;5033087;28;20477;-77
2022/08/16 09:30:48;;;;;;;8.80;5.82;;;24.20;90.60;;;;;;5032785;28;20033;-77
2022/08/16 09:33:18;;;;;;;8.85;6.18;;;24.20;90.00;;;;;;5050896;28;20028;-77
2022/08/16 09:35:45;;;;;;;11.60;7.07;;;24.30;89.90;;;;;;5050489;28;20113;-77
2022/08/16 09:38:12;;;;;;;11.98;5.75;;;24.30;89.90;;;;;;5050762;28;20067;-78
2022/08/16 09:40:43;;;;;;;10.30;5.78;;;24.30;89.90;;;;;;5050524;28;20036;-78
2022/08/16 09:43:16;;;;;;;9.43;7.15;;;24.30;89.80;;;;;;5049465;28;20045;-77
2022/08/16 09:45:43;;;;;;;10.25;6.05;;;24.40;90.00;;;;;;5050787;28;20029;-78
2022/08/16 09:48:10;;;;;;;9.30;6.30;;;24.40;89.40;;;;;;5050639;28;20033;-77
2022/08/16 09:50:38;;;;;;;9.33;6.60;;;24.50;88.70;;;;;;5050510;28;20028;-77
2022/08/16 09:53:06;;;;;;;10.25;6.82;;;24.50;89.20;;;;;;5033107;28;20033;-77
2022/08/16 09:55:32;;;;;;;12.13;6.65;;;24.50;89.20;;;;;;5050462;28;20048;-77
2022/08/16 09:57:58;;;;;;;9.68;6.38;;;24.60;88.20;;;;;;5050560;28;20041;-78
2022/08/16 10:00:25;;;;;;;10.05;5.68;;;24.70;88.10;;;;;;5050281;28;20025;-77
2022/08/16 10:02:53;;;;;;;11.15;5.50;;;24.70;87.60;;;;;;5050458;28;20025;-77
2022/08/16 10:05:20;;;;;;;8.38;5.53;;;24.80;87.20;;;;;;5050616;28;20115;-77
2022/08/16 10:07:50;;;;;;;7.40;5.88;;;24.80;86.90;;;;;;5050351;28;20052;-77
2022/08/16 10:10:18;;;;;;;9.88;5.82;;;24.90;86.70;;;;;;5050292;28;20486;-77
2022/08/16 10:15:29;;;;;;;12.98;5.60;;;25.00;85.80;;;;;;5032258;28;20099;-77
2022/08/16 10:17:55;;;;;;;9.40;5.47;;;25.10;85.70;;;;;;5050460;28;20029;-77
2022/08/16 10:20:24;;;;;;;9.50;4.93;;;25.10;85.50;;;;;;5050251;28;20032;-77
2022/08/16 10:22:51;;;;;;;;;;;25.10;85.20;;;;;;5050883;28;20029;-78
2022/08/16 10:25:17;;;;;;;10.32;5.43;;;25.10;85.10;;;;;;5051045;28;20419;-77
2022/08/16 10:27:45;;;;;;;8.63;4.93;;;25.10;85.20;;;;;;5053970;28;20033;-77
2022/08/16 10:30:11;;;;;;;8.82;4.97;;;25.10;85.20;;;;;;5053821;28;20037;-77
2022/08/16 10:32:37;;;;;;;9.48;5.47;;;25.20;84.60;;;;;;5054098;28;20056;-78
2022/08/16 10:35:03;;;;;;;8.45;5.57;;;25.20;84.00;;;;;;5054282;28;20602;-77
2022/08/16 10:37:29;;;;;;;8.85;5.00;;;25.30;83.80;;;;;;5053845;28;20413;-77
2022/08/16 10:39:55;;;;;;;6.90;4.60;;;25.40;83.30;;;;;;5053832;28;20029;-77
2022/08/16 10:42:21;;;;;;;9.75;5.03;;;25.30;83.00;;;;;;5054009;28;20082;-77
2022/08/16 10:44:48;;;;;;;8.40;4.50;;;25.30;83.60;;;;;;5053949;28;20083;-77
2022/08/16 10:47:14;;;;;;;10.30;4.93;;;25.30;82.20;;;;;;5053692;28;20044;-77
2022/08/16 10:49:40;;;;;;;8.93;4.40;;;25.50;81.10;;;;;;5053664;28;20396;-77
2022/08/16 10:52:05;;;;;;;9.40;5.40;;;25.50;81.20;;;;;;5053928;28;20054;-77
2022/08/16 10:54:31;;;;;;;8.23;5.28;;;25.50;81.50;;;;;;5053745;28;20029;-78
2022/08/16 10:56:59;;;;;;;10.75;4.65;;;25.50;81.60;;;;;;5053227;28;20106;-77
2022/08/16 10:59:25;;;;;;;7.22;4.63;;;25.50;81.10;;;;;;5053488;28;20021;-77
2022/08/16 11:01:51;;;;;;;6.85;4.45;;;25.50;81.40;;;;;;5036030;28;20037;-77
2022/08/16 11:04:17;;;;;;;7.97;5.15;;;25.50;81.80;;;;;;5054039;28;20025;-77
2022/08/16 11:06:43;;;;;;;9.15;4.90;;;25.50;81.50;;;;;;5053470;28;20024;-77
2022/08/16 11:09:09;;;;;;;10.82;5.25;;;25.60;81.10;;;;;;5053301;28;20386;-77
2022/08/16 11:11:35;;;;;;;7.25;4.63;;;25.60;81.20;;;;;;5035442;28;20174;-77
2022/08/16 11:14:00;;;;;;;11.13;4.88;;;25.60;81.40;;;;;;5053328;28;20083;-77
2022/08/16 11:16:29;;;;;;;10.40;4.75;;;25.60;80.70;;;;;;5053590;28;20121;-77
2022/08/16 11:18:56;;;;;;;8.07;4.15;;;25.70;80.60;;;;;;5053116;28;20036;-77
2022/08/16 11:21:24;;;;;;;7.78;4.57;;;25.80;79.60;;;;;;5053217;28;20029;-77
2022/08/16 11:23:52;;;;;;;8.67;4.30;;;25.90;78.50;;;;;;5053076;28;20056;-77
2022/08/16 11:26:18;;;;;;;7.97;4.50;;;26.00;78.70;;;;;;5052828;28;20286;-77
2022/08/16 11:28:44;;;;;;;8.48;4.43;;;26.00;78.60;;;;;;5034885;28;20521;-77
2022/08/16 11:31:10;;;;;;;8.55;4.18;;;26.10;78.20;;;;;;5053211;28;20040;-77
2022/08/16 11:33:36;;;;;;;8.75;4.32;;;26.10;78.30;;;;;;5053426;28;20040;-77
2022/08/16 11:36:03;;;;;;;9.57;4.50;;;26.10;78.10;;;;;;5052435;28;20044;-77
2022/08/16 11:38:29;;;;;;;10.60;5.18;;;26.20;76.90;;;;;;5051932;28;20078;-77
2022/08/16 11:40:57;;;;;;;10.30;4.80;;;26.20;77.00;;;;;;5053181;28;20080;-77
2022/08/16 11:43:33;;;;;;;8.63;5.10;;;26.30;77.10;;;;;;5053129;28;20056;-77
2022/08/16 11:46:01;;;;;;;9.70;5.97;;;26.30;77.10;;;;;;5052822;28;20044;-77
2022/08/16 11:48:29;;;;;;;7.60;5.35;;;26.30;77.20;;;;;;5053020;28;20029;-77
2022/08/16 11:50:55;;;;;;;7.15;4.80;;;26.20;77.50;;;;;;5052787;28;20473;-77
2022/08/16 11:53:23;;;;;;;7.68;4.68;;;26.20;77.80;;;;;;5053059;28;20396;-77
2022/08/16 11:55:49;;;;;;;6.40;4.50;;;26.40;78.00;;;;;;5052534;28;20112;-77
2022/08/16 11:58:15;;;;;;;8.30;4.60;;;26.50;77.10;;;;;;5052712;28;20031;-77
2022/08/16 12:00:43;;;;;;;9.20;5.05;;;26.70;76.70;;;;;;5052632;28;20100;-77
2022/08/16 12:03:09;;;;;;;7.55;4.80;;;26.70;76.40;;;;;;5052712;28;20029;-77
2022/08/16 12:05:37;;;;;;;6.57;4.13;;;26.70;75.60;;;;;;5052989;28;20112;-77
2022/08/16 12:08:05;;;;;;;8.52;4.40;;;26.70;75.80;;;;;;5052762;28;20397;-78
2022/08/16 12:10:32;;;;;;;7.95;4.35;;;26.60;76.00;;;;;;5052242;28;20039;-77
2022/08/16 12:12:58;;;;;;;7.03;4.68;;;26.60;76.30;;;;;;5052399;28;20025;-77
2022/08/16 12:15:25;;;;;;;11.40;4.82;;;26.60;76.60;;;;;;5052369;28;20397;-77
2022/08/16 12:17:53;;;;;;;8.43;4.55;;;26.70;75.80;;;;;;5052147;28;20036;-78
2022/08/16 12:20:24;;;;;;;8.27;5.40;;;26.80;75.20;;;;;;5051962;28;20028;-77
2022/08/16 12:22:52;;;;;;;7.22;4.82;;;26.70;74.80;;;;;;5052321;28;20033;-78
2022/08/16 12:25:18;;;;;;;9.48;5.32;;;26.80;75.10;;;;;;5052182;28;20371;-77
2022/08/16 12:27:46;;;;;;;10.77;5.13;;;26.70;75.20;;;;;;5050626;28;20509;-77
2022/08/16 12:30:14;;;;;;;14.10;5.20;;;26.70;75.50;;;;;;5051919;28;20060;-77
2022/08/16 12:32:40;;;;;;;;;;;26.70;75.60;;;;;;5052419;28;20037;-77
2022/08/16 12:35:10;;;;;;;10.68;4.78;;;26.70;75.70;;;;;;5051842;28;20003;-78
2022/08/16 12:37:37;;;;;;;11.77;4.93;;;26.60;75.30;;;;;;5052126;28;20052;-77
2022/08/16 12:40:06;;;;;;;7.57;4.53;;;26.70;75.00;;;;;;5051868;28;20029;-77
2022/08/16 12:42:33;;;;;;;6.68;4.70;;;26.70;74.70;;;;;;5052343;28;20032;-77
2022/08/16 12:45:00;;;;;;;6.72;4.57;;;26.70;74.50;;;;;;5051844;28;20493;-77
2022/08/16 12:50:10;;;;;;;8.68;4.45;;;26.70;74.30;;;;;;5051321;28;20043;-77
2022/08/16 12:52:36;;;;;;;9.07;4.72;;;26.70;74.10;;;;;;5051835;28;20116;-78
2022/08/16 12:55:03;;;;;;;8.13;4.38;;;26.70;74.10;;;;;;5051352;28;20025;-78